sensor_id;sensor_type;location;lat;lon;timestamp;P1;durP1;ratioP1;P2;durP2;ratioP2
25129;SDS011;13308;50.860;13.664;2024-02-28T06:18:01;17.20;;;6.85;;
25129;SDS011;13308;50.860;13.664;2024-02-28T06:20:27;20.77;;;8.10;;
25129;SDS011;13308;50.860;13.664;2024-02-28T06:22:53;20.02;;;7.65;;
25129;SDS011;13308;50.860;13.664;2024-02-28T06:25:18;14.60;;;6.78;;
25129;SDS011;13308;50.860;13.664;2024-02-28T06:27:45;21.85;;;7.97;;
25129;SDS011;13308;50.860;13.664;2024-02-28T06:30:11;22.35;;;7.80;;
25129;SDS011;13308;50.860;13.664;2024-02-28T06:32:40;15.82;;;7.32;;
25129;SDS011;13308;50.860;13.664;2024-02-28T06:35:06;21.00;;;7.78;;
25129;SDS011;13308;50.860;13.664;2024-02-28T06:37:32;19.20;;;7.72;;
25129;SDS011;13308;50.860;13.664;2024-02-28T06:39:58;20.98;;;7.50;;
25129;SDS011;13308;50.860;13.664;2024-02-28T06:42:23;19.00;;;7.65;;
25129;SDS011;13308;50.860;13.664;2024-02-28T06:44:48;20.17;;;7.65;;
25129;SDS011;13308;50.860;13.664;2024-02-28T06:47:14;19.38;;;7.82;;
25129;SDS011;13308;50.860;13.664;2024-02-28T06:49:39;17.60;;;7.18;;
25129;SDS011;13308;50.860;13.664;2024-02-28T06:52:05;20.75;;;7.72;;
25129;SDS011;13308;50.860;13.664;2024-02-28T06:54:31;17.00;;;7.30;;
25129;SDS011;13308;50.860;13.664;2024-02-28T06:56:57;22.55;;;8.73;;
25129;SDS011;13308;50.860;13.664;2024-02-28T06:59:22;25.52;;;8.20;;
25129;SDS011;13308;50.860;13.664;2024-02-28T07:01:48;22.70;;;9.00;;
25129;SDS011;13308;50.860;13.664;2024-02-28T07:04:13;25.05;;;8.57;;
25129;SDS011;13308;50.860;13.664;2024-02-28T07:06:38;18.55;;;6.78;;
25129;SDS011;13308;50.860;13.664;2024-02-28T07:09:07;22.42;;;7.38;;
25129;SDS011;13308;50.860;13.664;2024-02-28T07:11:33;17.88;;;7.10;;
25129;SDS011;13308;50.860;13.664;2024-02-28T07:13:58;18.80;;;6.95;;
25129;SDS011;13308;50.860;13.664;2024-02-28T07:16:27;16.83;;;6.70;;
25129;SDS011;13308;50.860;13.664;2024-02-28T07:18:53;15.48;;;6.35;;
25129;SDS011;13308;50.860;13.664;2024-02-28T07:21:18;15.68;;;6.65;;
25129;SDS011;13308;50.860;13.664;2024-02-28T07:23:44;19.02;;;6.82;;
25129;SDS011;13308;50.860;13.664;2024-02-28T07:26:13;19.83;;;7.00;;
25129;SDS011;13308;50.860;13.664;2024-02-28T07:28:40;20.50;;;7.68;;
25129;SDS011;13308;50.860;13.664;2024-02-28T07:31:05;15.50;;;7.25;;
25129;SDS011;13308;50.860;13.664;2024-02-28T07:33:30;19.90;;;7.97;;
25129;SDS011;13308;50.860;13.664;2024-02-28T07:35:56;14.40;;;6.47;;
25129;SDS011;13308;50.860;13.664;2024-02-28T07:38:25;15.52;;;6.65;;
25129;SDS011;13308;50.860;13.664;2024-02-28T07:40:52;18.58;;;7.03;;
25129;SDS011;13308;50.860;13.664;2024-02-28T07:43:18;14.70;;;6.35;;
25129;SDS011;13308;50.860;13.664;2024-02-28T07:45:43;15.40;;;6.68;;
25129;SDS011;13308;50.860;13.664;2024-02-28T07:48:08;11.13;;;6.28;;
25129;SDS011;13308;50.860;13.664;2024-02-28T07:50:34;11.75;;;6.15;;
25129;SDS011;13308;50.860;13.664;2024-02-28T07:52:59;13.52;;;6.35;;
25129;SDS011;13308;50.860;13.664;2024-02-28T07:55:24;13.88;;;6.63;;
25129;SDS011;13308;50.860;13.664;2024-02-28T07:57:55;14.27;;;6.25;;
25129;SDS011;13308;50.860;13.664;2024-02-28T08:00:21;14.63;;;6.53;;
25129;SDS011;13308;50.860;13.664;2024-02-28T08:02:47;12.00;;;6.57;;
25129;SDS011;13308;50.860;13.664;2024-02-28T08:05:13;15.23;;;6.13;;
25129;SDS011;13308;50.860;13.664;2024-02-28T08:07:39;10.55;;;5.82;;
25129;SDS011;13308;50.860;13.664;2024-02-28T08:10:04;10.65;;;5.63;;
25129;SDS011;13308;50.860;13.664;2024-02-28T08:12:30;10.57;;;5.30;;
25129;SDS011;13308;50.860;13.664;2024-02-28T08:14:56;12.18;;;5.80;;
25129;SDS011;13308;50.860;13.664;2024-02-28T08:17:21;8.73;;;5.20;;
25129;SDS011;13308;50.860;13.664;2024-02-28T08:19:46;11.55;;;5.80;;
25129;SDS011;13308;50.860;13.664;2024-02-28T08:22:12;13.65;;;5.97;;
25129;SDS011;13308;50.860;13.664;2024-02-28T08:24:37;15.35;;;6.18;;
25129;SDS011;13308;50.860;13.664;2024-02-28T08:27:03;15.25;;;6.65;;
25129;SDS011;13308;50.860;13.664;2024-02-28T08:29:28;10.80;;;5.88;;
25129;SDS011;13308;50.860;13.664;2024-02-28T08:31:53;12.93;;;6.07;;
25129;SDS011;13308;50.860;13.664;2024-02-28T08:34:19;10.88;;;5.55;;
25129;SDS011;13308;50.860;13.664;2024-02-28T08:36:44;11.85;;;5.63;;
25129;SDS011;13308;50.860;13.664;2024-02-28T08:39:09;8.80;;;5.20;;
25129;SDS011;13308;50.860;13.664;2024-02-28T08:41:35;17.27;;;6.13;;
25129;SDS011;13308;50.860;13.664;2024-02-28T08:44:00;14.13;;;6.22;;
25129;SDS011;13308;50.860;13.664;2024-02-28T08:46:26;12.98;;;5.68;;
25129;SDS011;13308;50.860;13.664;2024-02-28T08:48:51;11.40;;;5.47;;
25129;SDS011;13308;50.860;13.664;2024-02-28T08:51:16;11.02;;;5.38;;
25129;SDS011;13308;50.860;13.664;2024-02-28T08:53:41;11.98;;;6.53;;
25129;SDS011;13308;50.860;13.664;2024-02-28T08:56:07;12.10;;;6.05;;
25129;SDS011;13308;50.860;13.664;2024-02-28T08:58:32;14.27;;;6.43;;
25129;SDS011;13308;50.860;13.664;2024-02-28T09:00:57;13.18;;;6.43;;
25129;SDS011;13308;50.860;13.664;2024-02-28T09:03:23;12.75;;;6.40;;
25129;SDS011;13308;50.860;13.664;2024-02-28T09:05:48;13.05;;;6.68;;
25129;SDS011;13308;50.860;13.664;2024-02-28T09:08:14;15.52;;;6.45;;
25129;SDS011;13308;50.860;13.664;2024-02-28T09:10:39;19.13;;;7.05;;
25129;SDS011;13308;50.860;13.664;2024-02-28T09:13:04;16.80;;;7.03;;
25129;SDS011;13308;50.860;13.664;2024-02-28T09:15:31;16.13;;;8.23;;
25129;SDS011;13308;50.860;13.664;2024-02-28T09:17:57;14.48;;;7.03;;
25129;SDS011;13308;50.860;13.664;2024-02-28T09:20:22;12.70;;;6.50;;
25129;SDS011;13308;50.860;13.664;2024-02-28T09:22:47;36.45;;;13.45;;
25129;SDS011;13308;50.860;13.664;2024-02-28T09:25:13;59.70;;;21.88;;
25129;SDS011;13308;50.860;13.664;2024-02-28T09:27:40;20.15;;;8.77;;
25129;SDS011;13308;50.860;13.664;2024-02-28T09:30:06;16.73;;;7.35;;
25129;SDS011;13308;50.860;13.664;2024-02-28T09:32:31;19.38;;;8.02;;
25129;SDS011;13308;50.860;13.664;2024-02-28T09:34:57;22.25;;;8.18;;
25129;SDS011;13308;50.860;13.664;2024-02-28T09:37:22;21.25;;;9.05;;
25129;SDS011;13308;50.860;13.664;2024-02-28T09:39:49;17.15;;;7.70;;
25129;SDS011;13308;50.860;13.664;2024-02-28T09:42:14;19.88;;;7.63;;
25129;SDS011;13308;50.860;13.664;2024-02-28T09:44:40;16.95;;;7.82;;
25129;SDS011;13308;50.860;13.664;2024-02-28T09:47:07;20.30;;;7.78;;
25129;SDS011;13308;50.860;13.664;2024-02-28T09:49:33;18.00;;;8.05;;
25129;SDS011;13308;50.860;13.664;2024-02-28T09:51:59;16.20;;;7.82;;
25129;SDS011;13308;50.860;13.664;2024-02-28T09:54:25;21.17;;;8.63;;
25129;SDS011;13308;50.860;13.664;2024-02-28T09:56:51;17.75;;;7.57;;
25129;SDS011;13308;50.860;13.664;2024-02-28T09:59:17;14.80;;;7.35;;
25129;SDS011;13308;50.860;13.664;2024-02-28T10:01:44;14.00;;;6.85;;
25129;SDS011;13308;50.860;13.664;2024-02-28T10:04:18;14.73;;;7.70;;
25129;SDS011;13308;50.860;13.664;2024-02-28T10:06:44;15.38;;;7.80;;
25129;SDS011;13308;50.860;13.664;2024-02-28T10:09:09;28.08;;;11.55;;
25129;SDS011;13308;50.860;13.664;2024-02-28T10:11:35;68.85;;;21.45;;
25129;SDS011;13308;50.860;13.664;2024-02-28T10:14:01;70.45;;;20.55;;
25129;SDS011;13308;50.860;13.664;2024-02-28T10:16:26;26.10;;;12.05;;
25129;SDS011;13308;50.860;13.664;2024-02-28T10:18:52;20.27;;;9.25;;
25129;SDS011;13308;50.860;13.664;2024-02-28T10:21:17;66.10;;;20.63;;
25129;SDS011;13308;50.860;13.664;2024-02-28T10:23:43;27.48;;;11.27;;
25129;SDS011;13308;50.860;13.664;2024-02-28T10:26:09;16.63;;;7.80;;
25129;SDS011;13308;50.860;13.664;2024-02-28T10:28:39;18.58;;;8.25;;
25129;SDS011;13308;50.860;13.664;2024-02-28T10:31:05;17.92;;;8.50;;
25129;SDS011;13308;50.860;13.664;2024-02-28T10:33:32;19.20;;;7.70;;
25129;SDS011;13308;50.860;13.664;2024-02-28T10:35:58;15.00;;;7.47;;
25129;SDS011;13308;50.860;13.664;2024-02-28T10:38:25;12.35;;;6.28;;
25129;SDS011;13308;50.860;13.664;2024-02-28T10:40:52;17.27;;;7.57;;
25129;SDS011;13308;50.860;13.664;2024-02-28T10:43:18;18.05;;;9.50;;
25129;SDS011;13308;50.860;13.664;2024-02-28T10:45:44;24.02;;;9.95;;
25129;SDS011;13308;50.860;13.664;2024-02-28T10:48:10;16.08;;;8.25;;
25129;SDS011;13308;50.860;13.664;2024-02-28T10:50:36;24.80;;;9.88;;
25129;SDS011;13308;50.860;13.664;2024-02-28T10:53:02;22.55;;;9.95;;
25129;SDS011;13308;50.860;13.664;2024-02-28T10:55:35;23.33;;;9.43;;
25129;SDS011;13308;50.860;13.664;2024-02-28T10:58:08;23.60;;;9.98;;
25129;SDS011;13308;50.860;13.664;2024-02-28T11:00:37;26.38;;;10.48;;
25129;SDS011;13308;50.860;13.664;2024-02-28T11:03:04;22.23;;;9.73;;
25129;SDS011;13308;50.860;13.664;2024-02-28T11:05:36;26.10;;;10.88;;
25129;SDS011;13308;50.860;13.664;2024-02-28T11:08:11;32.55;;;11.93;;
25129;SDS011;13308;50.860;13.664;2024-02-28T11:10:45;30.20;;;11.82;;
25129;SDS011;13308;50.860;13.664;2024-02-28T11:13:21;29.05;;;12.05;;
25129;SDS011;13308;50.860;13.664;2024-02-28T11:15:51;25.50;;;11.50;;
25129;SDS011;13308;50.860;13.664;2024-02-28T11:18:16;28.02;;;11.63;;
25129;SDS011;13308;50.860;13.664;2024-02-28T11:20:42;24.88;;;10.38;;
25129;SDS011;13308;50.860;13.664;2024-02-28T11:23:11;29.30;;;11.65;;
25129;SDS011;13308;50.860;13.664;2024-02-28T11:25:36;24.38;;;10.30;;
25129;SDS011;13308;50.860;13.664;2024-02-28T11:28:02;19.80;;;10.00;;
25129;SDS011;13308;50.860;13.664;2024-02-28T11:30:28;23.92;;;10.65;;
25129;SDS011;13308;50.860;13.664;2024-02-28T11:32:54;30.83;;;10.73;;
25129;SDS011;13308;50.860;13.664;2024-02-28T11:35:19;28.73;;;11.32;;
25129;SDS011;13308;50.860;13.664;2024-02-28T11:37:45;22.23;;;10.05;;
25129;SDS011;13308;50.860;13.664;2024-02-28T11:40:12;24.80;;;10.75;;
25129;SDS011;13308;50.860;13.664;2024-02-28T11:42:38;19.90;;;9.38;;
25129;SDS011;13308;50.860;13.664;2024-02-28T11:45:04;21.00;;;10.20;;
25129;SDS011;13308;50.860;13.664;2024-02-28T11:47:31;19.50;;;9.38;;
25129;SDS011;13308;50.860;13.664;2024-02-28T11:49:58;24.33;;;10.38;;
25129;SDS011;13308;50.860;13.664;2024-02-28T11:52:25;23.23;;;10.25;;
25129;SDS011;13308;50.860;13.664;2024-02-28T11:54:50;19.85;;;10.65;;
25129;SDS011;13308;50.860;13.664;2024-02-28T11:57:16;19.38;;;10.27;;
25129;SDS011;13308;50.860;13.664;2024-02-28T11:59:43;18.95;;;10.07;;
25129;SDS011;13308;50.860;13.664;2024-02-28T12:02:12;18.33;;;9.27;;
25129;SDS011;13308;50.860;13.664;2024-02-28T12:04:38;19.02;;;9.00;;
25129;SDS011;13308;50.860;13.664;2024-02-28T12:07:04;17.58;;;8.55;;
25129;SDS011;13308;50.860;13.664;2024-02-28T12:09:30;20.48;;;10.05;;
25129;SDS011;13308;50.860;13.664;2024-02-28T12:11:55;19.90;;;10.57;;
25129;SDS011;13308;50.860;13.664;2024-02-28T12:14:20;19.67;;;11.02;;
25129;SDS011;13308;50.860;13.664;2024-02-28T12:16:46;22.67;;;10.98;;
25129;SDS011;13308;50.860;13.664;2024-02-28T12:19:13;16.58;;;8.95;;
25129;SDS011;13308;50.860;13.664;2024-02-28T12:21:40;15.32;;;8.57;;
25129;SDS011;13308;50.860;13.664;2024-02-28T12:24:09;14.05;;;8.38;;
25129;SDS011;13308;50.860;13.664;2024-02-28T12:26:35;17.88;;;9.13;;
25129;SDS011;13308;50.860;13.664;2024-02-28T12:29:01;15.35;;;8.00;;
25129;SDS011;13308;50.860;13.664;2024-02-28T12:31:27;17.77;;;9.02;;
25129;SDS011;13308;50.860;13.664;2024-02-28T12:33:52;13.68;;;8.07;;
25129;SDS011;13308;50.860;13.664;2024-02-28T12:36:18;16.88;;;8.32;;
25129;SDS011;13308;50.860;13.664;2024-02-28T12:38:44;18.52;;;8.63;;
25129;SDS011;13308;50.860;13.664;2024-02-28T12:41:09;14.95;;;8.52;;
25129;SDS011;13308;50.860;13.664;2024-02-28T12:43:34;13.07;;;8.15;;
25129;SDS011;13308;50.860;13.664;2024-02-28T12:46:00;19.67;;;8.25;;
25129;SDS011;13308;50.860;13.664;2024-02-28T12:48:25;15.60;;;7.97;;
25129;SDS011;13308;50.860;13.664;2024-02-28T12:50:50;19.17;;;8.95;;
25129;SDS011;13308;50.860;13.664;2024-02-28T12:53:16;19.05;;;8.82;;
25129;SDS011;13308;50.860;13.664;2024-02-28T12:55:41;20.70;;;10.40;;
25129;SDS011;13308;50.860;13.664;2024-02-28T12:58:07;16.30;;;8.70;;
25129;SDS011;13308;50.860;13.664;2024-02-28T13:00:33;16.27;;;8.88;;
25129;SDS011;13308;50.860;13.664;2024-02-28T13:02:58;16.80;;;8.30;;
25129;SDS011;13308;50.860;13.664;2024-02-28T13:05:23;17.13;;;8.75;;
25129;SDS011;13308;50.860;13.664;2024-02-28T13:07:49;17.60;;;9.48;;
25129;SDS011;13308;50.860;13.664;2024-02-28T13:10:14;16.17;;;8.63;;
25129;SDS011;13308;50.860;13.664;2024-02-28T13:12:39;18.27;;;9.13;;
25129;SDS011;13308;50.860;13.664;2024-02-28T13:15:05;15.52;;;9.27;;
25129;SDS011;13308;50.860;13.664;2024-02-28T13:17:31;18.40;;;8.80;;
25129;SDS011;13308;50.860;13.664;2024-02-28T13:19:56;15.93;;;8.75;;
25129;SDS011;13308;50.860;13.664;2024-02-28T13:22:22;16.65;;;8.93;;
25129;SDS011;13308;50.860;13.664;2024-02-28T13:24:47;21.42;;;9.18;;
25129;SDS011;13308;50.860;13.664;2024-02-28T13:27:12;22.77;;;9.60;;
25129;SDS011;13308;50.860;13.664;2024-02-28T13:29:38;19.02;;;9.25;;
25129;SDS011;13308;50.860;13.664;2024-02-28T13:32:03;18.85;;;9.60;;
25129;SDS011;13308;50.860;13.664;2024-02-28T13:34:28;23.83;;;9.50;;
25129;SDS011;13308;50.860;13.664;2024-02-28T13:36:57;19.35;;;9.13;;
25129;SDS011;13308;50.860;13.664;2024-02-28T13:39:23;20.50;;;10.05;;
25129;SDS011;13308;50.860;13.664;2024-02-28T13:41:49;17.08;;;8.85;;
25129;SDS011;13308;50.860;13.664;2024-02-28T13:44:16;16.67;;;9.15;;
25129;SDS011;13308;50.860;13.664;2024-02-28T13:46:42;21.17;;;9.85;;
25129;SDS011;13308;50.860;13.664;2024-02-28T13:49:07;22.33;;;10.20;;
25129;SDS011;13308;50.860;13.664;2024-02-28T13:51:33;23.98;;;9.30;;
25129;SDS011;13308;50.860;13.664;2024-02-28T13:53:58;18.05;;;9.05;;
25129;SDS011;13308;50.860;13.664;2024-02-28T13:56:23;16.75;;;8.57;;
25129;SDS011;13308;50.860;13.664;2024-02-28T13:58:49;18.95;;;9.60;;
25129;SDS011;13308;50.860;13.664;2024-02-28T14:01:14;16.95;;;8.70;;
25129;SDS011;13308;50.860;13.664;2024-02-28T14:03:40;17.25;;;9.43;;
25129;SDS011;13308;50.860;13.664;2024-02-28T14:06:05;22.73;;;10.02;;
25129;SDS011;13308;50.860;13.664;2024-02-28T14:08:31;19.05;;;9.15;;
25129;SDS011;13308;50.860;13.664;2024-02-28T14:10:56;16.60;;;8.60;;
25129;SDS011;13308;50.860;13.664;2024-02-28T14:13:23;17.67;;;9.05;;
25129;SDS011;13308;50.860;13.664;2024-02-28T14:15:49;18.60;;;9.02;;
25129;SDS011;13308;50.860;13.664;2024-02-28T14:18:16;18.15;;;9.23;;
25129;SDS011;13308;50.860;13.664;2024-02-28T14:20:42;22.05;;;9.77;;
25129;SDS011;13308;50.860;13.664;2024-02-28T14:23:08;18.65;;;9.52;;
25129;SDS011;13308;50.860;13.664;2024-02-28T14:25:33;18.42;;;10.25;;
25129;SDS011;13308;50.860;13.664;2024-02-28T14:27:59;17.90;;;9.98;;
25129;SDS011;13308;50.860;13.664;2024-02-28T14:30:24;18.30;;;10.00;;
25129;SDS011;13308;50.860;13.664;2024-02-28T14:32:50;18.35;;;8.98;;
25129;SDS011;13308;50.860;13.664;2024-02-28T14:35:15;17.10;;;9.00;;
25129;SDS011;13308;50.860;13.664;2024-02-28T14:37:41;16.35;;;8.07;;
25129;SDS011;13308;50.860;13.664;2024-02-28T14:40:07;14.18;;;8.85;;
25129;SDS011;13308;50.860;13.664;2024-02-28T14:42:37;15.90;;;9.13;;
25129;SDS011;13308;50.860;13.664;2024-02-28T14:45:09;15.75;;;8.45;;
25129;SDS011;13308;50.860;13.664;2024-02-28T14:47:41;12.75;;;8.07;;
25129;SDS011;13308;50.860;13.664;2024-02-28T14:50:07;14.25;;;8.43;;
25129;SDS011;13308;50.860;13.664;2024-02-28T14:52:35;15.38;;;8.10;;
25129;SDS011;13308;50.860;13.664;2024-02-28T14:55:01;12.13;;;8.00;;
25129;SDS011;13308;50.860;13.664;2024-02-28T14:57:26;14.65;;;8.95;;
25129;SDS011;13308;50.860;13.664;2024-02-28T14:59:52;14.95;;;8.52;;
25129;SDS011;13308;50.860;13.664;2024-02-28T15:02:18;13.98;;;8.32;;
25129;SDS011;13308;50.860;13.664;2024-02-28T15:04:44;14.70;;;8.32;;
25129;SDS011;13308;50.860;13.664;2024-02-28T15:07:10;11.10;;;7.88;;
25129;SDS011;13308;50.860;13.664;2024-02-28T15:09:36;12.90;;;8.20;;
25129;SDS011;13308;50.860;13.664;2024-02-28T15:12:01;12.43;;;7.65;;
25129;SDS011;13308;50.860;13.664;2024-02-28T15:14:26;13.35;;;8.15;;
25129;SDS011;13308;50.860;13.664;2024-02-28T15:16:52;13.00;;;8.20;;
25129;SDS011;13308;50.860;13.664;2024-02-28T15:19:19;11.77;;;8.00;;
25129;SDS011;13308;50.860;13.664;2024-02-28T15:21:44;12.75;;;7.55;;
25129;SDS011;13308;50.860;13.664;2024-02-28T15:24:10;16.60;;;8.68;;
25129;SDS011;13308;50.860;13.664;2024-02-28T15:26:35;12.93;;;7.70;;
25129;SDS011;13308;50.860;13.664;2024-02-28T15:29:01;10.88;;;7.07;;
25129;SDS011;13308;50.860;13.664;2024-02-28T15:31:26;12.82;;;8.02;;
25129;SDS011;13308;50.860;13.664;2024-02-28T15:33:53;11.32;;;7.90;;
25129;SDS011;13308;50.860;13.664;2024-02-28T15:36:18;13.30;;;8.40;;
25129;SDS011;13308;50.860;13.664;2024-02-28T15:38:43;11.50;;;7.47;;
25129;SDS011;13308;50.860;13.664;2024-02-28T15:41:09;10.93;;;7.35;;
25129;SDS011;13308;50.860;13.664;2024-02-28T15:43:34;12.20;;;8.13;;
25129;SDS011;13308;50.860;13.664;2024-02-28T15:46:00;15.32;;;8.05;;
25129;SDS011;13308;50.860;13.664;2024-02-28T15:48:26;12.50;;;7.68;;
25129;SDS011;13308;50.860;13.664;2024-02-28T15:50:52;12.02;;;7.45;;
25129;SDS011;13308;50.860;13.664;2024-02-28T15:53:18;12.98;;;7.60;;
25129;SDS011;13308;50.860;13.664;2024-02-28T15:55:43;12.85;;;7.80;;
25129;SDS011;13308;50.860;13.664;2024-02-28T15:58:08;13.23;;;7.90;;
25129;SDS011;13308;50.860;13.664;2024-02-28T16:00:34;15.57;;;8.55;;
25129;SDS011;13308;50.860;13.664;2024-02-28T16:02:59;14.07;;;7.85;;
25129;SDS011;13308;50.860;13.664;2024-02-28T16:05:24;11.93;;;7.85;;
25129;SDS011;13308;50.860;13.664;2024-02-28T16:07:53;13.02;;;7.05;;
25129;SDS011;13308;50.860;13.664;2024-02-28T16:10:19;9.90;;;6.10;;
25129;SDS011;13308;50.860;13.664;2024-02-28T16:12:45;13.73;;;6.75;;
25129;SDS011;13308;50.860;13.664;2024-02-28T16:15:10;12.60;;;7.55;;
25129;SDS011;13308;50.860;13.664;2024-02-28T16:17:36;13.60;;;7.80;;
25129;SDS011;13308;50.860;13.664;2024-02-28T16:20:02;12.80;;;7.18;;
25129;SDS011;13308;50.860;13.664;2024-02-28T16:22:28;15.80;;;7.18;;
25129;SDS011;13308;50.860;13.664;2024-02-28T16:24:54;19.00;;;8.52;;
25129;SDS011;13308;50.860;13.664;2024-02-28T16:27:19;15.05;;;8.07;;
25129;SDS011;13308;50.860;13.664;2024-02-28T16:29:45;16.75;;;7.75;;
25129;SDS011;13308;50.860;13.664;2024-02-28T16:32:10;14.45;;;7.18;;
25129;SDS011;13308;50.860;13.664;2024-02-28T16:34:35;11.80;;;6.82;;
25129;SDS011;13308;50.860;13.664;2024-02-28T16:37:02;14.07;;;7.35;;
25129;SDS011;13308;50.860;13.664;2024-02-28T16:39:28;13.93;;;7.28;;
25129;SDS011;13308;50.860;13.664;2024-02-28T16:41:53;12.82;;;7.30;;
25129;SDS011;13308;50.860;13.664;2024-02-28T16:44:18;17.48;;;8.30;;
25129;SDS011;13308;50.860;13.664;2024-02-28T16:46:44;16.90;;;8.13;;
25129;SDS011;13308;50.860;13.664;2024-02-28T16:49:10;12.32;;;6.20;;
25129;SDS011;13308;50.860;13.664;2024-02-28T16:51:35;14.65;;;7.57;;
25129;SDS011;13308;50.860;13.664;2024-02-28T16:54:00;15.05;;;8.20;;
25129;SDS011;13308;50.860;13.664;2024-02-28T16:56:26;17.63;;;9.15;;
25129;SDS011;13308;50.860;13.664;2024-02-28T16:58:51;14.30;;;8.07;;
25129;SDS011;13308;50.860;13.664;2024-02-28T17:01:16;15.95;;;8.25;;
25129;SDS011;13308;50.860;13.664;2024-02-28T17:03:42;17.20;;;7.88;;
25129;SDS011;13308;50.860;13.664;2024-02-28T17:06:08;14.35;;;7.47;;
25129;SDS011;13308;50.860;13.664;2024-02-28T17:08:33;15.60;;;8.35;;
25129;SDS011;13308;50.860;13.664;2024-02-28T17:10:59;19.70;;;9.52;;
25129;SDS011;13308;50.860;13.664;2024-02-28T17:13:25;18.55;;;8.45;;
25129;SDS011;13308;50.860;13.664;2024-02-28T17:15:50;19.60;;;10.02;;
25129;SDS011;13308;50.860;13.664;2024-02-28T17:18:27;19.48;;;8.77;;
25129;SDS011;13308;50.860;13.664;2024-02-28T17:20:54;17.77;;;8.90;;
25129;SDS011;13308;50.860;13.664;2024-02-28T17:23:19;23.15;;;10.10;;
25129;SDS011;13308;50.860;13.664;2024-02-28T17:25:44;25.02;;;10.73;;
25129;SDS011;13308;50.860;13.664;2024-02-28T17:28:10;21.00;;;10.43;;
25129;SDS011;13308;50.860;13.664;2024-02-28T17:30:35;27.85;;;11.55;;
25129;SDS011;13308;50.860;13.664;2024-02-28T17:33:01;38.28;;;14.90;;
25129;SDS011;13308;50.860;13.664;2024-02-28T17:35:26;47.13;;;19.00;;
25129;SDS011;13308;50.860;13.664;2024-02-28T17:37:51;26.58;;;13.70;;
25129;SDS011;13308;50.860;13.664;2024-02-28T17:40:17;25.00;;;11.48;;
25129;SDS011;13308;50.860;13.664;2024-02-28T17:42:42;21.52;;;10.40;;
25129;SDS011;13308;50.860;13.664;2024-02-28T17:45:08;27.50;;;12.63;;
25129;SDS011;13308;50.860;13.664;2024-02-28T17:47:36;25.80;;;11.52;;
25129;SDS011;13308;50.860;13.664;2024-02-28T17:50:03;25.23;;;12.93;;
25129;SDS011;13308;50.860;13.664;2024-02-28T17:52:30;30.38;;;15.43;;
25129;SDS011;13308;50.860;13.664;2024-02-28T17:54:55;24.15;;;10.05;;
25129;SDS011;13308;50.860;13.664;2024-02-28T17:57:20;25.65;;;10.27;;
25129;SDS011;13308;50.860;13.664;2024-02-28T17:59:46;26.33;;;11.70;;
25129;SDS011;13308;50.860;13.664;2024-02-28T18:02:11;19.77;;;9.80;;
25129;SDS011;13308;50.860;13.664;2024-02-28T18:04:36;23.55;;;10.02;;
25129;SDS011;13308;50.860;13.664;2024-02-28T18:07:02;21.15;;;10.25;;
25129;SDS011;13308;50.860;13.664;2024-02-28T18:09:27;23.65;;;12.02;;
25129;SDS011;13308;50.860;13.664;2024-02-28T18:11:52;27.88;;;13.25;;
25129;SDS011;13308;50.860;13.664;2024-02-28T18:14:18;28.10;;;11.60;;
25129;SDS011;13308;50.860;13.664;2024-02-28T18:16:44;29.38;;;11.77;;
25129;SDS011;13308;50.860;13.664;2024-02-28T18:19:10;19.05;;;9.50;;
25129;SDS011;13308;50.860;13.664;2024-02-28T18:21:36;23.48;;;9.90;;
25129;SDS011;13308;50.860;13.664;2024-02-28T18:24:01;21.17;;;10.48;;
25129;SDS011;13308;50.860;13.664;2024-02-28T18:26:29;28.30;;;10.40;;
25129;SDS011;13308;50.860;13.664;2024-02-28T18:28:54;25.65;;;11.75;;
25129;SDS011;13308;50.860;13.664;2024-02-28T18:31:19;22.35;;;11.15;;
25129;SDS011;13308;50.860;13.664;2024-02-28T18:33:45;25.35;;;11.95;;
25129;SDS011;13308;50.860;13.664;2024-02-28T18:36:10;40.92;;;14.77;;
25129;SDS011;13308;50.860;13.664;2024-02-28T18:38:35;35.42;;;14.45;;
25129;SDS011;13308;50.860;13.664;2024-02-28T18:41:02;34.30;;;13.30;;
25129;SDS011;13308;50.860;13.664;2024-02-28T18:43:27;25.60;;;10.60;;
25129;SDS011;13308;50.860;13.664;2024-02-28T18:45:53;29.27;;;13.00;;
25129;SDS011;13308;50.860;13.664;2024-02-28T18:48:18;29.83;;;13.65;;
25129;SDS011;13308;50.860;13.664;2024-02-28T18:50:44;26.88;;;13.00;;
25129;SDS011;13308;50.860;13.664;2024-02-28T18:53:09;26.27;;;12.43;;
25129;SDS011;13308;50.860;13.664;2024-02-28T18:55:35;32.35;;;12.98;;
25129;SDS011;13308;50.860;13.664;2024-02-28T18:58:01;25.40;;;11.68;;
25129;SDS011;13308;50.860;13.664;2024-02-28T19:00:26;23.83;;;10.90;;
25129;SDS011;13308;50.860;13.664;2024-02-28T19:02:52;24.80;;;11.30;;
25129;SDS011;13308;50.860;13.664;2024-02-28T19:05:18;30.75;;;11.73;;
25129;SDS011;13308;50.860;13.664;2024-02-28T19:07:44;17.85;;;9.07;;
25129;SDS011;13308;50.860;13.664;2024-02-28T19:10:10;21.55;;;9.68;;
25129;SDS011;13308;50.860;13.664;2024-02-28T19:12:35;23.67;;;9.07;;
25129;SDS011;13308;50.860;13.664;2024-02-28T19:15:00;21.90;;;9.25;;
25129;SDS011;13308;50.860;13.664;2024-02-28T19:17:27;20.40;;;9.52;;
25129;SDS011;13308;50.860;13.664;2024-02-28T19:19:52;25.45;;;10.85;;
